Terminal Aerodrome Forecast
Issued by NWS Nashville, TN

Home | Current Version | Previous Version | Text Only | Print | Product List | Glossary On
Versions: 1 2 3 4 5 6 7 8 9 10 11 12 13 14 15 16 17
000
FTUS44 KOHX 142013 AAA
TAFBNA
TAF AMD
KBNA 142013Z 1420/1518 11010KT 6SM -SNPL BR SCT025 OVC035
     FM150000 16008KT 4SM -RA SCT007 OVC015=

USA.gov is the U.S. government's official web portal to all federal, state and local government web resources and services.